createdAt,value
2018-07-24T00:02:26.178Z,20.37
2018-07-24T00:05:59.428Z,20.57
2018-07-24T00:09:32.716Z,23.20
2018-07-24T00:13:06.060Z,19.50
2018-07-24T00:16:39.332Z,22.13
2018-07-24T00:20:12.335Z,23.33
2018-07-24T00:23:45.597Z,21.37
2018-07-24T00:27:18.867Z,21.80
2018-07-24T00:30:52.129Z,20.97
2018-07-24T00:34:25.382Z,21.80
2018-07-24T00:37:58.648Z,17.67
2018-07-24T00:41:31.893Z,20.40
2018-07-24T00:45:05.140Z,21.30
2018-07-24T00:48:38.405Z,21.70
2018-07-24T00:52:11.664Z,18.03
2018-07-24T00:55:44.907Z,22.73
2018-07-24T00:59:18.148Z,21.40
2018-07-24T01:02:51.400Z,21.90
2018-07-24T01:06:24.648Z,21.17
2018-07-24T01:09:57.912Z,19.77
2018-07-24T01:13:31.168Z,23.47
2018-07-24T01:17:04.428Z,24.30
2018-07-24T01:20:37.735Z,23.07
2018-07-24T01:24:10.735Z,20.70
2018-07-24T01:27:43.996Z,23.90
2018-07-24T01:31:17.653Z,23.57
2018-07-24T01:34:50.915Z,23.20
2018-07-24T01:38:24.192Z,22.03
2018-07-24T01:41:57.475Z,23.03
2018-07-24T01:45:30.749Z,21.70
2018-07-24T01:49:04.194Z,21.23
2018-07-24T01:52:37.465Z,26.60
2018-07-24T01:56:10.728Z,25.60
2018-07-24T01:59:43.979Z,24.90
2018-07-24T02:03:17.261Z,23.80
2018-07-24T02:06:50.560Z,21.53
2018-07-24T02:10:23.831Z,20.83
2018-07-24T02:13:56.845Z,21.53
2018-07-24T02:17:30.114Z,24.80
2018-07-24T02:21:03.380Z,25.23
2018-07-24T02:24:36.633Z,21.90
2018-07-24T02:28:09.992Z,21.90
2018-07-24T02:31:43.348Z,22.33
2018-07-24T02:35:16.525Z,24.27
2018-07-24T02:38:49.814Z,25.17
2018-07-24T02:42:23.082Z,26.27
2018-07-24T02:45:56.340Z,26.60
2018-07-24T02:49:29.579Z,26.30
2018-07-24T02:53:02.845Z,26.33
2018-07-24T02:56:36.113Z,27.30
2018-07-24T03:00:09.398Z,27.80
2018-07-24T03:03:42.646Z,26.97
2018-07-24T03:07:15.898Z,25.93
2018-07-24T03:10:49.197Z,27.30
2018-07-24T03:14:22.477Z,26.87
2018-07-24T03:17:55.765Z,26.90
2018-07-24T03:21:29.049Z,25.77
2018-07-24T03:25:02.305Z,28.33
2018-07-24T03:28:35.564Z,25.27
2018-07-24T03:32:08.839Z,25.37
2018-07-24T03:35:42.105Z,23.17
2018-07-24T03:39:15.384Z,28.80
2018-07-24T03:42:48.656Z,25.87
2018-07-24T03:46:22.047Z,25.10
2018-07-24T03:49:55.077Z,26.80
2018-07-24T03:53:28.328Z,27.50
2018-07-24T03:57:01.606Z,26.60
2018-07-24T04:00:34.862Z,27.87
2018-07-24T04:04:08.149Z,26.00
2018-07-24T04:07:41.147Z,26.20
2018-07-24T04:11:14.419Z,26.30
2018-07-24T04:14:47.691Z,24.47
2018-07-24T04:18:20.948Z,28.50
2018-07-24T04:21:53.957Z,25.83
2018-07-24T04:25:27.369Z,28.80
2018-07-24T04:29:00.616Z,27.00
2018-07-24T04:32:33.933Z,29.00
2018-07-24T04:36:06.936Z,25.03
2018-07-24T04:39:40.504Z,30.50
2018-07-24T04:43:13.762Z,29.13
2018-07-24T04:46:47.096Z,30.87
2018-07-24T04:50:20.357Z,29.83
2018-07-24T04:53:53.681Z,30.00
2018-07-24T04:57:26.933Z,27.03
2018-07-24T05:01:00.196Z,29.80
2018-07-24T05:04:33.461Z,32.53
2018-07-24T05:08:06.737Z,30.27
2018-07-24T05:11:40.027Z,26.10
2018-07-24T05:15:13.380Z,31.70
2018-07-24T05:18:46.647Z,31.57
2018-07-24T05:22:19.899Z,29.07
2018-07-24T05:25:53.181Z,27.33
2018-07-24T05:29:26.438Z,31.50
2018-07-24T05:32:59.704Z,31.83
2018-07-24T05:36:33.255Z,29.87
2018-07-24T05:40:06.379Z,29.97
2018-07-24T05:43:39.636Z,30.23
2018-07-24T05:47:12.941Z,31.80
2018-07-24T05:50:46.229Z,29.60
2018-07-24T05:54:19.500Z,28.83
2018-07-24T05:57:52.866Z,28.03
2018-07-24T06:01:26.106Z,26.40
2018-07-24T06:04:59.713Z,30.87
2018-07-24T06:08:32.745Z,29.97
2018-07-24T06:12:06.289Z,30.33
2018-07-24T06:15:39.533Z,23.97
2018-07-24T06:19:12.839Z,27.30
2018-07-24T06:22:46.104Z,29.37
2018-07-24T06:26:19.354Z,26.90
2018-07-24T06:29:52.605Z,28.83
2018-07-24T06:33:25.866Z,26.70
2018-07-24T06:36:59.146Z,28.67
2018-07-24T06:40:32.409Z,29.10
2018-07-24T06:44:05.705Z,29.07
2018-07-24T06:47:39.044Z,28.07
2018-07-24T06:51:12.323Z,27.57
2018-07-24T06:54:45.752Z,25.77
2018-07-24T06:58:19.121Z,27.07
2018-07-24T07:01:52.384Z,27.30
2018-07-24T07:05:25.637Z,28.80
2018-07-24T07:09:06.486Z,25.17
2018-07-24T07:12:39.747Z,27.50
2018-07-24T07:16:13.014Z,26.57
2018-07-24T07:19:46.264Z,21.57
2018-07-24T07:23:19.285Z,26.23
2018-07-24T07:26:52.529Z,28.97
2018-07-24T07:30:25.784Z,27.60
2018-07-24T07:33:59.069Z,27.47
2018-07-24T07:37:32.336Z,26.17
2018-07-24T07:41:05.780Z,26.53
2018-07-24T07:44:39.038Z,25.70
2018-07-24T07:48:12.321Z,24.57
2018-07-24T07:51:45.589Z,23.33
2018-07-24T07:55:18.837Z,23.20
2018-07-24T07:58:52.186Z,27.37
2018-07-24T08:02:25.462Z,24.87
2018-07-24T08:05:58.692Z,22.97
2018-07-24T08:09:31.951Z,22.90
2018-07-24T08:13:05.294Z,23.93
2018-07-24T08:16:38.567Z,22.47
2018-07-24T08:20:11.622Z,24.53
2018-07-24T08:23:44.910Z,20.17
2018-07-24T08:27:18.184Z,22.63
2018-07-24T08:30:51.477Z,21.90
2018-07-24T08:34:24.736Z,24.57
2018-07-24T08:37:58.013Z,20.33
2018-07-24T08:41:31.289Z,21.17
2018-07-24T08:45:04.920Z,18.90
2018-07-24T08:48:38.189Z,21.37
2018-07-24T08:52:11.450Z,18.63
2018-07-24T08:55:45.020Z,19.70
2018-07-24T08:59:17.984Z,18.60
2018-07-24T09:02:51.249Z,21.10
2018-07-24T09:06:24.516Z,19.20
2018-07-24T09:09:57.787Z,16.20
2018-07-24T09:13:31.051Z,18.17
2018-07-24T09:17:04.316Z,19.53
2018-07-24T09:20:37.618Z,17.20
2018-07-24T09:24:11.004Z,18.13
2018-07-24T09:27:44.254Z,17.03
2018-07-24T09:31:17.524Z,16.10
2018-07-24T09:34:50.766Z,15.00
2018-07-24T09:38:24.029Z,16.20
2018-07-24T09:41:57.314Z,14.03
2018-07-24T09:45:30.582Z,13.87
2018-07-24T09:49:03.682Z,12.90
2018-07-24T09:52:36.985Z,13.83
2018-07-24T09:56:10.279Z,14.97
2018-07-24T09:59:43.277Z,13.70
2018-07-24T10:03:16.545Z,11.40
2018-07-24T10:06:49.808Z,12.20
2018-07-24T10:10:23.056Z,10.57
2018-07-24T10:13:56.429Z,13.23
2018-07-24T10:17:29.706Z,13.07
2018-07-24T10:21:03.024Z,12.57
2018-07-24T10:24:36.269Z,11.70
2018-07-24T10:28:09.539Z,11.73
2018-07-24T10:31:42.802Z,11.70
2018-07-24T10:35:16.268Z,11.07
2018-07-24T10:38:49.529Z,10.33
2018-07-24T10:42:22.796Z,11.07
2018-07-24T10:45:56.068Z,11.20
2018-07-24T10:49:29.354Z,11.00
2018-07-24T10:53:02.665Z,11.00
2018-07-24T10:56:35.917Z,11.90
2018-07-24T11:00:09.276Z,8.80
2018-07-24T11:03:42.548Z,10.87
2018-07-24T11:07:15.821Z,11.63
2018-07-24T11:10:49.136Z,12.37
2018-07-24T11:14:22.328Z,10.80
2018-07-24T11:17:55.621Z,10.90
2018-07-24T11:21:28.890Z,11.70
2018-07-24T11:25:01.902Z,11.60
2018-07-24T11:28:35.194Z,11.73
2018-07-24T11:32:08.465Z,11.67
2018-07-24T11:35:41.788Z,12.23
2018-07-24T11:39:15.036Z,12.87
2018-07-24T11:42:48.312Z,11.67
2018-07-24T11:46:21.553Z,11.50
2018-07-24T11:49:54.816Z,12.00
2018-07-24T11:53:28.081Z,11.93
2018-07-24T11:57:01.445Z,11.20
2018-07-24T12:00:34.712Z,11.13
2018-07-24T12:04:07.982Z,11.30
2018-07-24T12:07:41.279Z,10.97
2018-07-24T12:11:14.575Z,11.30
2018-07-24T12:14:47.819Z,10.23
2018-07-24T12:18:21.137Z,12.30
2018-07-24T12:21:54.449Z,11.03
2018-07-24T12:25:27.692Z,10.20
2018-07-24T12:29:00.958Z,10.30
2018-07-24T12:32:34.269Z,10.83
2018-07-24T12:36:07.597Z,9.80
2018-07-24T12:39:40.801Z,10.10
2018-07-24T12:43:14.076Z,10.47
2018-07-24T12:46:47.354Z,11.03
2018-07-24T12:50:20.614Z,10.77
2018-07-24T12:53:53.881Z,9.73
2018-07-24T12:57:27.143Z,10.00
2018-07-24T13:01:00.436Z,10.30
2018-07-24T13:04:33.760Z,9.97
2018-07-24T13:08:07.011Z,9.87
2018-07-24T13:11:40.299Z,10.50
2018-07-24T13:15:13.550Z,9.40
2018-07-24T13:18:46.826Z,9.50
2018-07-24T13:22:20.102Z,9.30
2018-07-24T13:25:53.134Z,9.40
2018-07-24T13:29:26.424Z,9.97
2018-07-24T13:32:59.681Z,9.13
2018-07-24T13:36:32.948Z,9.23
2018-07-24T13:40:06.228Z,10.10
2018-07-24T13:43:39.469Z,9.53
2018-07-24T13:47:12.743Z,8.00
2018-07-24T13:50:46.007Z,9.90
2018-07-24T13:54:19.478Z,9.70
2018-07-24T13:57:52.772Z,9.63
2018-07-24T14:01:26.030Z,9.47
2018-07-24T14:04:59.277Z,9.03
2018-07-24T14:08:32.549Z,8.57
2018-07-24T14:12:05.822Z,9.47
2018-07-24T14:15:39.097Z,9.00
2018-07-24T14:19:12.098Z,9.10
2018-07-24T14:22:45.098Z,9.60
2018-07-24T14:26:18.095Z,8.77
2018-07-24T14:29:51.346Z,10.10
2018-07-24T14:33:24.609Z,9.50
2018-07-24T14:36:57.877Z,9.17
2018-07-24T14:40:31.198Z,8.90
2018-07-24T14:44:04.220Z,8.40
2018-07-24T14:47:37.469Z,9.37
2018-07-24T14:51:10.738Z,7.97
2018-07-24T14:54:43.981Z,7.87
2018-07-24T14:58:17.237Z,8.10
2018-07-24T15:01:50.564Z,7.30
2018-07-24T15:05:23.869Z,7.53
2018-07-24T15:08:57.214Z,8.20
2018-07-24T15:12:30.472Z,8.30
2018-07-24T15:16:04.726Z,7.47
2018-07-24T15:19:37.976Z,8.00
2018-07-24T15:23:11.250Z,7.33
2018-07-24T15:26:44.561Z,7.60
2018-07-24T15:30:17.568Z,7.80
2018-07-24T15:33:50.889Z,7.80
2018-07-24T15:37:24.145Z,7.37
2018-07-24T15:40:57.424Z,7.57
2018-07-24T15:44:30.694Z,8.80
2018-07-24T15:48:03.937Z,8.10
2018-07-24T15:51:37.251Z,7.90
2018-07-24T15:55:10.479Z,7.77
2018-07-24T15:58:43.773Z,8.27
2018-07-24T16:02:17.013Z,8.73
2018-07-24T16:05:50.081Z,8.50
2018-07-24T16:09:23.349Z,7.47
2018-07-24T16:12:56.602Z,7.80
2018-07-24T16:16:29.862Z,7.53
2018-07-24T16:20:03.225Z,6.87
2018-07-24T16:23:36.564Z,7.77
2018-07-24T16:27:09.806Z,7.87
2018-07-24T16:30:43.088Z,7.23
2018-07-24T16:34:16.349Z,7.10
2018-07-24T16:37:49.593Z,7.30
2018-07-24T16:41:22.866Z,7.37
2018-07-24T16:44:56.129Z,8.63
2018-07-24T16:48:29.383Z,8.03
2018-07-24T16:52:02.669Z,10.10
2018-07-24T16:55:35.935Z,8.10
2018-07-24T16:59:09.209Z,8.40
2018-07-24T17:02:42.531Z,8.30
2018-07-24T17:06:15.761Z,8.13
2018-07-24T17:09:49.026Z,7.50
2018-07-24T17:13:22.310Z,8.67
2018-07-24T17:16:55.553Z,7.93
2018-07-24T17:20:28.837Z,6.17
2018-07-24T17:24:02.105Z,9.27
2018-07-24T17:27:35.429Z,7.30
2018-07-24T17:31:08.580Z,7.83
2018-07-24T17:34:41.850Z,7.90
2018-07-24T17:38:15.106Z,7.20
2018-07-24T17:41:48.419Z,6.50
2018-07-24T17:45:21.625Z,7.73
2018-07-24T17:48:54.931Z,7.77
2018-07-24T17:52:28.181Z,7.00
2018-07-24T17:56:01.470Z,7.70
2018-07-24T17:59:34.728Z,8.37
2018-07-24T18:03:07.993Z,9.40
2018-07-24T18:06:41.323Z,7.70
2018-07-24T18:10:14.754Z,7.90
2018-07-24T18:13:48.062Z,8.17
2018-07-24T18:17:21.294Z,8.07
2018-07-24T18:20:54.544Z,7.13
2018-07-24T18:24:27.796Z,8.33
2018-07-24T18:28:01.030Z,7.93
2018-07-24T18:31:34.041Z,8.40
2018-07-24T18:35:07.781Z,9.30
2018-07-24T18:38:41.221Z,9.10
2018-07-24T18:42:14.418Z,9.20
2018-07-24T18:45:47.673Z,7.20
2018-07-24T18:49:20.944Z,8.30
2018-07-24T18:52:54.182Z,9.13
2018-07-24T18:56:27.447Z,8.03
2018-07-24T19:00:01.567Z,9.30
2018-07-24T19:03:34.877Z,9.50
2018-07-24T19:07:08.140Z,10.00
2018-07-24T19:10:41.435Z,10.43
2018-07-24T19:14:14.699Z,10.60
2018-07-24T19:17:47.953Z,9.90
2018-07-24T19:21:20.968Z,9.90
2018-07-24T19:24:54.207Z,10.17
2018-07-24T19:28:27.487Z,10.43
2018-07-24T19:32:00.762Z,11.23
2018-07-24T19:35:34.009Z,11.47
2018-07-24T19:39:09.254Z,11.73
2018-07-24T19:42:42.520Z,13.53
2018-07-24T19:46:15.777Z,13.77
2018-07-24T19:49:49.095Z,12.43
2018-07-24T19:53:22.300Z,12.43
2018-07-24T19:56:55.579Z,11.70
2018-07-24T20:00:28.845Z,15.73
2018-07-24T20:04:02.129Z,13.70
2018-07-24T20:07:35.391Z,11.77
2018-07-24T20:11:10.167Z,13.43
2018-07-24T20:14:43.501Z,13.50
2018-07-24T20:18:16.828Z,14.70
2018-07-24T20:21:50.108Z,12.70
2018-07-24T20:25:23.377Z,13.03
2018-07-24T20:28:56.651Z,14.10
2018-07-24T20:32:29.908Z,15.70
2018-07-24T20:36:03.190Z,14.07
2018-07-24T20:39:36.489Z,14.37
2018-07-24T20:43:09.881Z,13.80
2018-07-24T20:46:43.250Z,16.83
2018-07-24T20:50:16.577Z,14.43
2018-07-24T20:53:53.972Z,13.90
2018-07-24T20:57:27.296Z,12.37
2018-07-24T21:01:00.584Z,11.20
2018-07-24T21:04:34.049Z,11.90
2018-07-24T21:08:07.349Z,12.07
2018-07-24T21:11:40.677Z,13.10
2018-07-24T21:15:13.977Z,12.20
2018-07-24T21:18:47.589Z,12.17
2018-07-24T21:22:20.840Z,11.53
2018-07-24T21:25:54.088Z,14.30
2018-07-24T21:29:27.332Z,12.63
2018-07-24T21:33:00.571Z,13.23
2018-07-24T21:36:33.838Z,13.27
2018-07-24T21:40:07.085Z,12.93
2018-07-24T21:43:40.353Z,14.30
2018-07-24T21:47:13.733Z,16.47
2018-07-24T21:50:47.000Z,14.67
2018-07-24T21:54:20.261Z,13.63
2018-07-24T21:57:53.601Z,14.00
2018-07-24T22:01:26.893Z,14.00
2018-07-24T22:05:00.130Z,15.17
2018-07-24T22:08:33.465Z,13.10
2018-07-24T22:12:06.723Z,16.70
2018-07-24T22:15:39.981Z,14.07
2018-07-24T22:19:13.293Z,15.60
2018-07-24T22:22:46.525Z,16.23
2018-07-24T22:26:19.788Z,14.80
2018-07-24T22:29:53.049Z,14.50
2018-07-24T22:33:26.306Z,14.57
2018-07-24T22:36:59.570Z,14.70
2018-07-24T22:40:32.825Z,15.77
2018-07-24T22:44:06.080Z,16.20
2018-07-24T22:47:39.316Z,16.47
2018-07-24T22:51:12.580Z,16.50
2018-07-24T22:54:45.837Z,16.10
2018-07-24T22:58:19.100Z,16.70
2018-07-24T23:01:52.411Z,16.00
2018-07-24T23:05:25.757Z,15.20
2018-07-24T23:08:59.396Z,17.20
2018-07-24T23:12:32.393Z,14.90
2018-07-24T23:16:05.685Z,16.13
2018-07-24T23:19:39.060Z,15.70
2018-07-24T23:23:12.334Z,15.80
2018-07-24T23:26:45.963Z,15.83
2018-07-24T23:30:19.253Z,15.63
2018-07-24T23:33:52.508Z,16.37
2018-07-24T23:37:25.757Z,17.00
2018-07-24T23:40:59.039Z,16.90
2018-07-24T23:44:32.397Z,15.80
2018-07-24T23:48:05.645Z,16.27
2018-07-24T23:51:38.898Z,15.13
2018-07-24T23:55:11.896Z,16.07
2018-07-24T23:58:44.897Z,15.50
